createdAt,value
2022-12-03T00:00:11.880Z,40.08
2022-12-03T00:02:42.740Z,40.20
2022-12-03T00:05:11.620Z,40.20
2022-12-03T00:07:40.544Z,39.69
2022-12-03T00:10:10.400Z,40.33
2022-12-03T00:12:40.678Z,39.86
2022-12-03T00:15:10.548Z,40.03
2022-12-03T00:17:39.140Z,40.08
2022-12-03T00:20:11.419Z,40.25
2022-12-03T00:22:39.923Z,40.19
2022-12-03T00:25:10.117Z,39.82
2022-12-03T00:27:38.801Z,39.89
2022-12-03T00:30:08.800Z,39.95
2022-12-03T00:32:37.463Z,39.96
2022-12-03T00:35:06.281Z,40.25
2022-12-03T00:37:36.969Z,39.97
2022-12-03T00:40:05.486Z,39.82
2022-12-03T00:42:34.104Z,39.98
2022-12-03T00:45:02.831Z,40.09
2022-12-03T00:47:30.981Z,40.31
2022-12-03T00:49:59.852Z,39.77
2022-12-03T00:52:28.453Z,39.99
2022-12-03T00:54:58.509Z,40.13
2022-12-03T00:57:27.370Z,40.29
2022-12-03T00:59:56.172Z,39.99
2022-12-03T01:02:24.864Z,39.75
2022-12-03T01:04:53.585Z,39.88
2022-12-03T01:07:22.560Z,40.29
2022-12-03T01:09:51.158Z,39.98
2022-12-03T01:12:21.681Z,39.85
2022-12-03T01:14:50.258Z,39.90
2022-12-03T01:17:18.867Z,40.03
2022-12-03T01:19:48.630Z,39.83
2022-12-03T01:22:17.488Z,40.13
2022-12-03T01:24:46.253Z,40.37
2022-12-03T01:27:14.928Z,40.31
2022-12-03T01:29:45.210Z,40.33
2022-12-03T01:32:19.848Z,39.99
2022-12-03T01:34:49.249Z,40.02
2022-12-03T01:37:17.843Z,39.82
2022-12-03T01:39:46.721Z,40.03
2022-12-03T01:42:17.780Z,39.90
2022-12-03T01:44:48.421Z,39.65
2022-12-03T01:47:18.528Z,40.12
2022-12-03T01:49:49.604Z,40.29
2022-12-03T01:52:19.586Z,40.35
2022-12-03T01:54:49.217Z,40.39
2022-12-03T01:57:22.536Z,40.34
2022-12-03T01:59:53.212Z,40.34
2022-12-03T02:02:23.839Z,39.84
2022-12-03T02:04:53.265Z,40.14
2022-12-03T02:07:27.252Z,40.15
2022-12-03T02:09:56.707Z,40.28
2022-12-03T02:12:27.126Z,39.71
2022-12-03T02:14:57.422Z,39.99
2022-12-03T02:17:26.064Z,40.06
2022-12-03T02:19:54.677Z,39.72
2022-12-03T02:22:32.164Z,40.29
2022-12-03T02:25:28.030Z,40.34
2022-12-03T02:27:57.234Z,40.28
2022-12-03T02:30:27.113Z,39.70
2022-12-03T02:32:56.025Z,39.74
2022-12-03T02:35:26.041Z,40.24
2022-12-03T02:37:56.740Z,40.29
2022-12-03T02:40:29.105Z,40.33
2022-12-03T02:42:57.365Z,39.81
2022-12-03T02:45:27.240Z,40.09
2022-12-03T02:47:57.140Z,40.39
2022-12-03T02:50:28.732Z,40.03
2022-12-03T02:52:58.143Z,40.61
2022-12-03T02:55:33.513Z,40.23
2022-12-03T02:58:05.851Z,40.27
2022-12-03T03:00:35.549Z,40.27
2022-12-03T03:03:04.129Z,40.14
2022-12-03T03:05:32.937Z,40.09
2022-12-03T03:08:01.890Z,39.83
2022-12-03T03:10:32.306Z,39.93
2022-12-03T03:13:01.047Z,40.07
2022-12-03T03:15:29.682Z,40.11
2022-12-03T03:17:58.370Z,40.22
2022-12-03T03:20:27.180Z,40.04
2022-12-03T03:22:56.057Z,40.03
2022-12-03T03:25:24.967Z,39.82
2022-12-03T03:27:55.525Z,40.05
2022-12-03T03:30:24.161Z,39.98
2022-12-03T03:32:52.976Z,40.16
2022-12-03T03:35:21.492Z,40.13
2022-12-03T03:37:50.320Z,40.04
2022-12-03T03:40:19.468Z,39.67
2022-12-03T03:42:48.547Z,40.06
2022-12-03T03:45:21.636Z,40.26
2022-12-03T03:47:54.265Z,40.24
2022-12-03T03:50:23.232Z,40.20
2022-12-03T03:52:52.017Z,39.78
2022-12-03T03:55:20.681Z,40.06
2022-12-03T03:57:49.582Z,39.90
2022-12-03T04:00:20.976Z,39.72
2022-12-03T04:02:49.867Z,40.27
2022-12-03T04:05:20.043Z,39.75
2022-12-03T04:07:48.948Z,39.69
2022-12-03T04:10:34.126Z,40.00
2022-12-03T04:13:03.354Z,39.84
2022-12-03T04:15:33.774Z,39.84
2022-12-03T04:18:19.734Z,39.95
2022-12-03T04:20:48.384Z,40.10
2022-12-03T04:23:15.689Z,40.06
2022-12-03T04:26:00.892Z,39.97
2022-12-03T04:28:46.553Z,40.44
2022-12-03T04:31:30.141Z,39.77
2022-12-03T04:34:15.803Z,40.39
2022-12-03T04:36:44.114Z,39.84
2022-12-03T04:39:12.281Z,40.07
2022-12-03T04:41:41.547Z,39.94
2022-12-03T04:44:27.248Z,39.92
2022-12-03T04:46:57.560Z,39.80
2022-12-03T04:49:26.144Z,39.62
2022-12-03T04:51:54.430Z,40.08
2022-12-03T04:54:23.407Z,40.19
2022-12-03T04:56:52.261Z,40.21
2022-12-03T04:59:20.988Z,39.82
2022-12-03T05:01:49.628Z,39.97
2022-12-03T05:04:19.900Z,40.04
2022-12-03T05:06:48.226Z,39.96
2022-12-03T05:09:16.515Z,40.33
2022-12-03T05:11:45.419Z,39.63
2022-12-03T05:14:29.318Z,40.15
2022-12-03T05:16:58.454Z,40.28
2022-12-03T05:19:42.157Z,40.00
2022-12-03T05:22:10.971Z,39.95
2022-12-03T05:24:39.564Z,39.83
2022-12-03T05:27:08.425Z,40.28
2022-12-03T05:29:36.881Z,39.99
2022-12-03T05:32:06.015Z,40.02
2022-12-03T05:34:36.238Z,40.29
2022-12-03T05:37:04.862Z,40.28
2022-12-03T05:39:33.350Z,40.01
2022-12-03T05:42:19.312Z,39.74
2022-12-03T05:44:48.125Z,40.17
2022-12-03T05:47:16.959Z,40.26
2022-12-03T05:49:47.309Z,40.18
2022-12-03T05:52:15.732Z,39.88
2022-12-03T05:54:44.742Z,40.04
2022-12-03T05:57:13.331Z,40.14
2022-12-03T05:59:42.158Z,40.01
2022-12-03T06:02:11.118Z,40.25
2022-12-03T06:04:39.768Z,39.94
2022-12-03T06:07:13.921Z,39.99
2022-12-03T06:09:43.023Z,40.22
2022-12-03T06:12:11.815Z,39.80
2022-12-03T06:14:40.574Z,40.32
2022-12-03T06:17:09.557Z,40.40
2022-12-03T06:19:38.205Z,40.39
2022-12-03T06:22:06.599Z,40.33
2022-12-03T06:24:36.485Z,39.78
2022-12-03T06:27:05.315Z,40.49
2022-12-03T06:29:33.989Z,39.96
2022-12-03T06:32:02.479Z,40.35
2022-12-03T06:34:31.370Z,40.09
2022-12-03T06:36:59.823Z,40.13
2022-12-03T06:39:28.559Z,40.26
2022-12-03T06:41:58.608Z,39.98
2022-12-03T06:44:27.032Z,40.23
2022-12-03T06:46:55.930Z,39.95
2022-12-03T06:49:24.865Z,37.55
2022-12-03T06:51:53.656Z,37.26
2022-12-03T06:54:22.564Z,37.82
2022-12-03T06:56:51.360Z,37.71
2022-12-03T06:59:21.859Z,37.32
2022-12-03T07:01:50.796Z,37.64
2022-12-03T07:04:19.647Z,38.09
2022-12-03T07:06:48.051Z,37.71
2022-12-03T07:09:18.445Z,38.05
2022-12-03T07:11:47.301Z,38.00
2022-12-03T07:14:16.084Z,38.31
2022-12-03T07:16:46.687Z,38.00
2022-12-03T07:19:15.771Z,37.55
2022-12-03T07:21:44.608Z,37.73
2022-12-03T07:24:13.501Z,38.02
2022-12-03T07:26:41.901Z,37.75
2022-12-03T07:29:10.768Z,37.93
2022-12-03T07:31:39.429Z,37.87
2022-12-03T07:34:09.220Z,38.09
2022-12-03T07:36:37.476Z,38.61
2022-12-03T07:39:05.560Z,38.46
2022-12-03T07:41:33.949Z,38.36
2022-12-03T07:44:02.324Z,38.71
2022-12-03T07:46:30.699Z,38.43
2022-12-03T07:48:59.573Z,38.80
2022-12-03T07:51:32.320Z,38.58
2022-12-03T07:54:01.909Z,38.43
2022-12-03T07:56:30.385Z,38.19
2022-12-03T07:58:59.258Z,38.21
2022-12-03T08:01:27.921Z,38.85
2022-12-03T08:03:56.665Z,39.00
2022-12-03T08:06:25.432Z,38.81
2022-12-03T08:08:55.189Z,38.88
2022-12-03T08:11:24.025Z,39.09
2022-12-03T08:13:52.833Z,38.67
2022-12-03T08:16:22.683Z,39.10
2022-12-03T08:18:52.089Z,38.62
2022-12-03T08:21:22.017Z,38.62
2022-12-03T08:23:50.968Z,38.63
2022-12-03T08:26:24.639Z,38.48
2022-12-03T08:28:53.833Z,39.02
2022-12-03T08:31:29.272Z,39.00
2022-12-03T08:34:02.564Z,38.77
2022-12-03T08:36:32.153Z,38.96
2022-12-03T08:39:02.782Z,38.75
2022-12-03T08:41:50.770Z,39.17
2022-12-03T08:44:26.098Z,39.17
2022-12-03T08:46:55.784Z,39.39
2022-12-03T08:49:24.360Z,39.15
2022-12-03T08:51:56.400Z,39.00
2022-12-03T08:54:24.963Z,39.44
2022-12-03T08:56:55.182Z,39.29
2022-12-03T08:59:27.852Z,39.57
2022-12-03T09:01:56.621Z,39.47
2022-12-03T09:04:27.239Z,39.28
2022-12-03T09:06:56.599Z,39.08
2022-12-03T09:09:25.444Z,39.16
2022-12-03T09:11:55.855Z,39.52
2022-12-03T09:14:24.712Z,39.23
2022-12-03T09:16:55.985Z,39.25
2022-12-03T09:19:25.460Z,39.17
2022-12-03T09:21:54.293Z,39.51
2022-12-03T09:24:22.818Z,39.14
2022-12-03T09:26:51.428Z,39.21
2022-12-03T09:29:21.241Z,39.09
2022-12-03T09:31:49.460Z,39.00
2022-12-03T09:34:17.654Z,39.28
2022-12-03T09:36:45.799Z,38.91
2022-12-03T09:39:13.889Z,39.03
2022-12-03T09:41:43.881Z,38.49
2022-12-03T09:44:17.474Z,37.99
2022-12-03T09:46:48.612Z,37.07
2022-12-03T09:49:18.190Z,37.48
2022-12-03T09:51:46.866Z,36.89
2022-12-03T09:54:21.088Z,37.25
2022-12-03T09:56:49.497Z,36.87
2022-12-03T09:59:18.210Z,37.18
2022-12-03T10:01:48.564Z,36.95
2022-12-03T10:04:17.856Z,37.26
2022-12-03T10:06:46.737Z,37.30
2022-12-03T10:09:17.485Z,37.17
2022-12-03T10:11:46.088Z,37.31
2022-12-03T10:14:14.902Z,37.44
2022-12-03T10:16:43.927Z,37.22
2022-12-03T10:19:19.070Z,36.97
2022-12-03T10:21:48.025Z,37.18
2022-12-03T10:24:24.072Z,37.28
2022-12-03T10:26:53.477Z,36.92
2022-12-03T10:29:26.943Z,37.71
2022-12-03T10:31:58.061Z,37.28
2022-12-03T10:34:30.825Z,37.15
2022-12-03T10:37:13.498Z,37.02
2022-12-03T10:39:59.125Z,35.70
2022-12-03T10:42:30.582Z,35.82
2022-12-03T10:45:18.068Z,35.16
2022-12-03T10:48:07.664Z,34.92
2022-12-03T10:50:37.503Z,35.50
2022-12-03T10:53:05.926Z,35.70
2022-12-03T10:55:37.236Z,35.52
2022-12-03T10:58:05.624Z,35.89
2022-12-03T11:00:33.820Z,35.45
2022-12-03T11:03:02.249Z,35.68
2022-12-03T11:05:30.615Z,36.14
2022-12-03T11:08:00.418Z,35.55
2022-12-03T11:10:28.882Z,36.11
2022-12-03T11:13:30.828Z,35.81
2022-12-03T11:15:59.175Z,36.03
2022-12-03T11:19:04.176Z,35.61
2022-12-03T11:21:32.335Z,35.82
2022-12-03T11:24:20.552Z,36.12
2022-12-03T11:27:20.635Z,36.08
2022-12-03T11:29:59.213Z,35.78
2022-12-03T11:33:07.367Z,36.28
2022-12-03T11:36:08.178Z,36.10
2022-12-03T11:38:57.332Z,36.28
2022-12-03T11:41:31.506Z,35.90
2022-12-03T11:44:29.297Z,36.00
2022-12-03T11:47:02.173Z,36.27
2022-12-03T11:49:33.504Z,36.09
2022-12-03T11:52:02.508Z,35.73
2022-12-03T11:54:34.560Z,35.66
2022-12-03T11:57:04.318Z,35.74
2022-12-03T11:59:32.544Z,36.10
2022-12-03T12:02:00.667Z,36.11
2022-12-03T12:04:33.469Z,36.15
2022-12-03T12:07:01.723Z,36.11
2022-12-03T12:09:49.085Z,36.32
2022-12-03T12:12:27.045Z,36.10
2022-12-03T12:14:55.209Z,36.39
2022-12-03T12:17:30.581Z,36.13
2022-12-03T12:20:24.705Z,36.39
2022-12-03T12:22:53.349Z,35.64
2022-12-03T12:25:40.739Z,36.40
2022-12-03T12:28:10.433Z,35.99
2022-12-03T12:30:38.612Z,35.79
2022-12-03T12:33:15.817Z,36.49
2022-12-03T12:35:43.980Z,36.51
2022-12-03T12:38:16.944Z,36.35
2022-12-03T12:40:47.001Z,36.30
2022-12-03T12:43:24.595Z,36.63
2022-12-03T12:45:54.652Z,36.88
2022-12-03T12:48:24.965Z,37.11
2022-12-03T12:50:55.729Z,37.12
2022-12-03T12:53:25.121Z,37.16
2022-12-03T12:55:57.448Z,36.78
2022-12-03T12:58:27.391Z,37.49
2022-12-03T13:00:57.541Z,37.37
2022-12-03T13:03:26.869Z,37.64
2022-12-03T13:05:55.181Z,37.43
2022-12-03T13:08:26.296Z,37.69
2022-12-03T13:10:54.993Z,37.36
2022-12-03T13:13:30.846Z,37.86
2022-12-03T13:16:01.125Z,37.77
2022-12-03T13:18:32.855Z,37.68
2022-12-03T13:21:01.105Z,37.90
2022-12-03T13:23:31.474Z,37.69
2022-12-03T13:26:12.872Z,37.14
2022-12-03T13:28:52.609Z,36.94
2022-12-03T13:31:24.164Z,37.28
2022-12-03T13:33:52.705Z,37.13
2022-12-03T13:36:21.641Z,36.99
2022-12-03T13:38:50.089Z,36.94
2022-12-03T13:41:38.125Z,36.85
2022-12-03T13:44:18.427Z,37.07
2022-12-03T13:46:47.110Z,37.05
2022-12-03T13:49:17.361Z,36.59
2022-12-03T13:51:47.225Z,36.99
2022-12-03T13:54:18.153Z,36.59
2022-12-03T13:56:46.293Z,36.84
2022-12-03T13:59:14.625Z,36.99
2022-12-03T14:01:44.322Z,36.83
2022-12-03T14:04:12.913Z,36.80
2022-12-03T14:06:41.092Z,37.00
2022-12-03T14:09:09.443Z,36.50
2022-12-03T14:11:54.856Z,36.86
2022-12-03T14:14:23.038Z,36.61
2022-12-03T14:16:58.227Z,36.36
2022-12-03T14:19:27.946Z,36.77
2022-12-03T14:21:56.058Z,37.09
2022-12-03T14:24:24.192Z,36.45
2022-12-03T14:26:52.269Z,36.85
2022-12-03T14:29:20.406Z,36.81
2022-12-03T14:31:48.595Z,36.55
2022-12-03T14:34:18.299Z,36.57
2022-12-03T14:36:46.557Z,36.41
2022-12-03T14:39:14.704Z,36.45
2022-12-03T14:42:00.169Z,36.73
2022-12-03T14:44:28.498Z,36.73
2022-12-03T14:46:57.688Z,36.64
2022-12-03T14:49:27.667Z,36.40
2022-12-03T14:51:56.022Z,36.17
2022-12-03T14:54:24.372Z,36.61
2022-12-03T14:56:52.524Z,36.75
2022-12-03T14:59:25.894Z,36.58
2022-12-03T15:01:55.794Z,36.64
2022-12-03T15:04:24.015Z,36.84
2022-12-03T15:06:53.700Z,36.75
2022-12-03T15:09:22.697Z,36.36
2022-12-03T15:11:51.429Z,37.14
2022-12-03T15:14:19.576Z,37.02
2022-12-03T15:16:47.915Z,36.87
2022-12-03T15:19:16.286Z,37.03
2022-12-03T15:21:44.493Z,37.39
2022-12-03T15:24:13.963Z,37.43
2022-12-03T15:26:42.197Z,37.83
2022-12-03T15:29:10.298Z,38.19
2022-12-03T15:31:38.522Z,37.71
2022-12-03T15:34:06.689Z,36.36
2022-12-03T15:36:34.807Z,36.52
2022-12-03T15:39:03.037Z,37.03
2022-12-03T15:41:32.753Z,36.97
2022-12-03T15:44:01.587Z,37.37
2022-12-03T15:46:31.355Z,37.81
2022-12-03T15:48:59.817Z,37.73
2022-12-03T15:51:28.025Z,37.35
2022-12-03T15:53:56.177Z,37.08
2022-12-03T15:56:24.315Z,37.24
2022-12-03T15:58:54.654Z,37.39
2022-12-03T16:01:22.905Z,37.34
2022-12-03T16:03:51.132Z,37.32
2022-12-03T16:06:19.697Z,37.89
2022-12-03T16:08:48.329Z,37.75
2022-12-03T16:11:16.581Z,37.37
2022-12-03T16:13:44.808Z,37.71
2022-12-03T16:16:14.728Z,38.02
2022-12-03T16:18:43.918Z,37.58
2022-12-03T16:21:11.988Z,38.11
2022-12-03T16:23:40.195Z,37.73
2022-12-03T16:26:08.367Z,37.45
2022-12-03T16:28:36.557Z,37.54
2022-12-03T16:31:04.768Z,37.58
2022-12-03T16:33:34.488Z,37.67
2022-12-03T16:36:03.653Z,38.08
2022-12-03T16:38:33.632Z,38.12
2022-12-03T16:41:02.416Z,37.89
2022-12-03T16:43:30.533Z,38.26
2022-12-03T16:46:20.688Z,38.10
2022-12-03T16:48:50.739Z,37.62
2022-12-03T16:51:19.362Z,37.84
2022-12-03T16:53:47.635Z,37.85
2022-12-03T16:56:16.089Z,38.37
2022-12-03T16:58:44.293Z,38.04
2022-12-03T17:01:12.622Z,38.33
2022-12-03T17:03:40.992Z,37.91
2022-12-03T17:06:10.591Z,37.87
2022-12-03T17:08:39.700Z,37.75
2022-12-03T17:11:09.275Z,38.11
2022-12-03T17:13:37.604Z,37.73
2022-12-03T17:16:06.915Z,37.70
2022-12-03T17:18:35.234Z,38.33
2022-12-03T17:21:03.442Z,38.47
2022-12-03T17:23:33.088Z,37.78
2022-12-03T17:26:01.292Z,38.34
2022-12-03T17:28:29.364Z,38.32
2022-12-03T17:30:57.598Z,38.18
2022-12-03T17:33:26.583Z,38.02
2022-12-03T17:35:54.784Z,38.10
2022-12-03T17:38:22.953Z,38.50
2022-12-03T17:40:52.484Z,38.13
2022-12-03T17:43:20.650Z,38.37
2022-12-03T17:45:48.746Z,38.26
2022-12-03T17:48:16.929Z,38.08
2022-12-03T17:50:45.205Z,38.41
2022-12-03T17:53:13.389Z,38.40
2022-12-03T17:55:45.071Z,38.14
2022-12-03T17:58:15.661Z,38.36
2022-12-03T18:00:43.924Z,38.28
2022-12-03T18:03:12.193Z,38.51
2022-12-03T18:05:40.301Z,38.19
2022-12-03T18:08:08.551Z,38.26
2022-12-03T18:10:36.773Z,38.37
2022-12-03T18:13:05.026Z,38.37
2022-12-03T18:15:34.543Z,38.32
2022-12-03T18:18:02.653Z,38.25
2022-12-03T18:20:32.098Z,38.41
2022-12-03T18:23:00.302Z,38.45
2022-12-03T18:25:28.414Z,38.81
2022-12-03T18:27:56.590Z,38.16
2022-12-03T18:30:24.753Z,38.55
2022-12-03T18:32:54.660Z,38.37
2022-12-03T18:35:22.997Z,38.15
2022-12-03T18:37:51.805Z,38.58
2022-12-03T18:40:21.063Z,38.35
2022-12-03T18:42:49.353Z,38.65
2022-12-03T18:45:17.825Z,38.64
2022-12-03T18:47:46.204Z,38.58
2022-12-03T18:50:16.048Z,38.48
2022-12-03T18:52:44.316Z,38.62
2022-12-03T18:55:14.053Z,38.63
2022-12-03T18:57:42.573Z,38.91
2022-12-03T19:00:13.729Z,39.03
2022-12-03T19:03:02.456Z,38.46
2022-12-03T19:05:32.684Z,38.98
2022-12-03T19:08:01.103Z,38.62
2022-12-03T19:10:29.405Z,38.72
2022-12-03T19:12:57.731Z,38.82
2022-12-03T19:15:25.926Z,38.75
2022-12-03T19:17:54.241Z,39.11
2022-12-03T19:20:22.453Z,38.54
2022-12-03T19:22:52.221Z,38.62
2022-12-03T19:25:20.411Z,38.60
2022-12-03T19:27:50.231Z,38.58
2022-12-03T19:30:18.981Z,38.26
2022-12-03T19:32:48.963Z,38.69
2022-12-03T19:35:17.305Z,37.91
2022-12-03T19:37:46.357Z,38.34
2022-12-03T19:40:16.324Z,38.62
2022-12-03T19:42:44.479Z,38.23
2022-12-03T19:45:12.804Z,38.09
2022-12-03T19:47:40.964Z,38.59
2022-12-03T19:50:10.317Z,38.63
2022-12-03T19:52:38.493Z,38.08
2022-12-03T19:55:07.132Z,37.95
2022-12-03T19:57:36.665Z,38.83
2022-12-03T20:00:06.731Z,38.63
2022-12-03T20:02:40.443Z,38.87
2022-12-03T20:05:08.830Z,39.25
2022-12-03T20:07:36.999Z,38.80
2022-12-03T20:10:06.189Z,38.77
2022-12-03T20:12:34.293Z,38.96
2022-12-03T20:15:03.891Z,38.90
2022-12-03T20:17:32.014Z,38.73
2022-12-03T20:20:00.255Z,38.78
2022-12-03T20:22:28.430Z,38.75
2022-12-03T20:24:56.588Z,39.20
2022-12-03T20:27:24.696Z,39.01
2022-12-03T20:29:53.227Z,38.80
2022-12-03T20:32:22.970Z,38.95
2022-12-03T20:34:51.072Z,38.88
2022-12-03T20:37:19.285Z,39.01
2022-12-03T20:39:47.461Z,38.69
2022-12-03T20:42:15.525Z,38.47
2022-12-03T20:44:43.716Z,38.66
2022-12-03T20:47:11.796Z,38.64
2022-12-03T20:49:41.543Z,38.99
2022-12-03T20:52:09.708Z,38.87
2022-12-03T20:54:37.917Z,38.63
2022-12-03T20:57:06.034Z,39.11
2022-12-03T20:59:34.104Z,38.73
2022-12-03T21:02:02.395Z,38.50
2022-12-03T21:04:30.567Z,38.99
2022-12-03T21:07:00.101Z,38.97
2022-12-03T21:09:28.217Z,38.79
2022-12-03T21:11:56.418Z,38.46
2022-12-03T21:14:24.511Z,39.04
2022-12-03T21:17:07.732Z,39.08
2022-12-03T21:19:36.823Z,38.81
2022-12-03T21:22:06.395Z,38.38
2022-12-03T21:24:34.727Z,38.68
2022-12-03T21:27:02.813Z,39.04
2022-12-03T21:29:30.973Z,38.62
2022-12-03T21:31:59.044Z,38.95
2022-12-03T21:34:31.312Z,38.88
2022-12-03T21:37:03.993Z,38.53
2022-12-03T21:39:33.458Z,38.51
2022-12-03T21:42:34.530Z,38.60
2022-12-03T21:44:49.755Z,38.53
2022-12-03T21:47:17.896Z,38.43
2022-12-03T21:49:46.113Z,38.50
2022-12-03T21:52:14.187Z,38.85
2022-12-03T21:54:43.722Z,38.81
2022-12-03T21:57:11.859Z,39.18
2022-12-03T21:59:40.079Z,38.94
2022-12-03T22:02:08.309Z,38.56
2022-12-03T22:04:36.723Z,38.95
2022-12-03T22:07:05.012Z,38.80
2022-12-03T22:09:33.328Z,38.92
2022-12-03T22:12:02.813Z,38.78
2022-12-03T22:14:31.029Z,38.91
2022-12-03T22:16:59.133Z,38.67
2022-12-03T22:19:27.356Z,39.18
2022-12-03T22:21:55.458Z,38.95
2022-12-03T22:24:24.091Z,38.84
2022-12-03T22:26:54.797Z,39.04
2022-12-03T22:29:24.362Z,39.22
2022-12-03T22:31:52.491Z,38.97
2022-12-03T22:34:20.604Z,39.01
2022-12-03T22:36:48.681Z,39.01
2022-12-03T22:39:16.805Z,39.08
2022-12-03T22:41:44.880Z,39.26
2022-12-03T22:44:13.040Z,39.15
2022-12-03T22:46:42.628Z,39.07
2022-12-03T22:49:11.143Z,38.94
2022-12-03T22:51:39.252Z,39.20
2022-12-03T22:54:07.462Z,38.73
2022-12-03T22:56:35.562Z,39.40
2022-12-03T22:59:03.701Z,38.99
2022-12-03T23:01:32.725Z,39.41
2022-12-03T23:04:02.474Z,38.91
2022-12-03T23:06:31.022Z,39.39
2022-12-03T23:08:59.494Z,38.82
2022-12-03T23:11:27.842Z,38.95
2022-12-03T23:13:55.952Z,39.02
2022-12-03T23:16:26.137Z,38.99
2022-12-03T23:18:54.446Z,38.73
2022-12-03T23:21:29.303Z,39.01
2022-12-03T23:23:58.354Z,39.03
2022-12-03T23:26:26.467Z,39.31
2022-12-03T23:28:54.614Z,38.89
2022-12-03T23:31:23.702Z,39.09
2022-12-03T23:33:52.132Z,38.99
2022-12-03T23:36:20.556Z,39.00
2022-12-03T23:38:50.109Z,39.00
2022-12-03T23:41:19.761Z,38.99
2022-12-03T23:43:48.017Z,38.71
2022-12-03T23:46:18.307Z,38.67
2022-12-03T23:48:46.601Z,39.02
2022-12-03T23:51:16.484Z,39.14
2022-12-03T23:53:44.883Z,38.94
2022-12-03T23:56:15.173Z,38.88
2022-12-03T23:58:43.381Z,38.69
